Time;durP1;ratioP1;P1;durP2;ratioP2;P2;SDS_P1;SDS_P2;PMS_P1;PMS_P2;Temp;Humidity;BMP_temperature;BMP_pressure;BME280_temperature;BME280_humidity;BME280_pressure;Samples;Min_cycle;Max_cycle;Signal;HPM_P1;HPM_P2
2023/09/10 00:01:14;;;;;;;16.03;14.53;;;19.20;99.90;;;;;;4987592;28;20252;-49
2023/09/10 00:03:42;;;;;;;17.37;15.57;;;19.20;99.90;;;;;;4993010;28;20216;-49
2023/09/10 00:06:09;;;;;;;17.50;15.67;;;19.20;99.90;;;;;;4968112;28;20918;-49
2023/09/10 00:08:37;;;;;;;18.30;15.03;;;19.20;99.90;;;;;;4988963;28;20205;-48
2023/09/10 00:11:05;;;;;;;17.30;15.53;;;19.20;99.90;;;;;;4986054;28;20193;-47
2023/09/10 00:13:32;;;;;;;17.27;15.03;;;19.10;99.90;;;;;;4986904;28;20320;-48
2023/09/10 00:15:59;;;;;;;15.80;14.20;;;19.00;99.90;;;;;;4981640;28;20313;-51
2023/09/10 00:18:26;;;;;;;16.97;15.37;;;18.90;99.90;;;;;;4984446;28;20287;-51
2023/09/10 00:20:54;;;;;;;16.73;15.07;;;18.90;99.90;;;;;;4985072;28;20629;-47
2023/09/10 00:23:21;;;;;;;17.07;15.43;;;18.80;99.90;;;;;;4977935;28;20294;-48
2023/09/10 00:25:49;;;;;;;16.20;14.50;;;18.80;99.90;;;;;;4998247;28;20208;-50
2023/09/10 00:28:16;;;;;;;16.60;14.90;;;18.80;99.90;;;;;;4998181;28;20185;-50
2023/09/10 00:30:43;;;;;;;18.57;15.87;;;18.90;99.90;;;;;;4998296;28;20198;-52
2023/09/10 00:33:10;;;;;;;18.37;16.37;;;18.90;99.90;;;;;;4996285;28;20216;-50
2023/09/10 00:35:36;;;;;;;19.97;17.93;;;18.80;99.90;;;;;;4996301;28;20207;-49
2023/09/10 00:38:03;;;;;;;16.80;15.03;;;18.90;99.90;;;;;;4965914;28;20204;-50
2023/09/10 00:40:30;;;;;;;18.30;13.93;;;18.90;99.90;;;;;;4995948;28;20196;-52
2023/09/10 00:42:58;;;;;;;16.10;14.50;;;18.90;99.90;;;;;;4992742;28;20214;-52
2023/09/10 00:45:25;;;;;;;16.23;14.67;;;18.90;99.90;;;;;;4991772;28;20207;-47
2023/09/10 00:47:52;;;;;;;16.27;14.67;;;18.90;99.90;;;;;;4990550;28;20484;-50
2023/09/10 00:50:19;;;;;;;15.73;14.07;;;18.80;99.90;;;;;;4991919;28;20273;-51
2023/09/10 00:52:51;;;;;;;14.53;13.13;;;18.70;99.90;;;;;;4966541;28;20660;-51
2023/09/10 00:55:19;;;;;;;17.27;15.53;;;18.80;99.90;;;;;;4983083;28;20185;-52
2023/09/10 00:57:46;;;;;;;16.30;14.50;;;18.80;99.90;;;;;;4987189;28;20186;-49
2023/09/10 01:00:15;;;;;;;16.17;14.53;;;18.80;99.90;;;;;;4987459;28;20194;-48
2023/09/10 01:02:44;;;;;;;17.00;15.30;;;18.80;99.90;;;;;;4987054;28;20595;-49
2023/09/10 01:05:12;;;;;;;18.13;15.13;;;18.80;99.90;;;;;;4985069;28;20335;-47
2023/09/10 01:07:39;;;;;;;16.57;15.07;;;18.70;99.90;;;;;;4969295;28;20216;-52
2023/09/10 01:10:07;;;;;;;16.53;14.93;;;18.70;99.90;;;;;;4984042;28;20979;-49
2023/09/10 01:12:43;;;;;;;18.23;16.30;;;18.70;99.90;;;;;;4985291;28;20197;-52
2023/09/10 01:15:18;;;;;;;18.27;16.57;;;18.60;99.90;;;;;;4976523;28;20200;-50
2023/09/10 01:17:53;;;;;;;18.20;16.50;;;18.50;99.90;;;;;;4983726;28;20663;-49
2023/09/10 01:20:42;;;;;;;20.77;16.50;;;18.50;99.90;;;;;;4986129;28;20199;-51
2023/09/10 01:23:14;;;;;;;17.80;15.97;;;18.50;99.90;;;;;;4959783;28;20221;-50
2023/09/10 01:25:43;;;;;;;18.20;15.57;;;18.40;99.90;;;;;;4984893;28;20287;-51
2023/09/10 01:28:10;;;;;;;18.70;16.90;;;18.30;99.90;;;;;;4991652;28;20220;-48
2023/09/10 01:30:37;;;;;;;17.27;15.63;;;18.30;99.90;;;;;;4971467;28;20204;-50
2023/09/10 01:33:14;;;;;;;17.77;16.07;;;18.30;99.90;;;;;;4991513;28;20209;-48
2023/09/10 01:35:49;;;;;;;17.10;15.43;;;18.20;99.90;;;;;;4990295;28;20209;-50
2023/09/10 01:38:21;;;;;;;16.63;15.03;;;18.20;99.90;;;;;;4973030;28;20196;-47
2023/09/10 01:40:57;;;;;;;19.40;17.37;;;18.10;99.90;;;;;;4981629;28;20201;-48
2023/09/10 01:43:25;;;;;;;17.87;16.07;;;18.10;99.90;;;;;;4987428;28;20639;-52
2023/09/10 01:45:52;;;;;;;18.80;15.60;;;18.10;99.90;;;;;;4989561;28;20549;-48
2023/09/10 01:48:20;;;;;;;16.87;15.10;;;18.10;99.90;;;;;;4992612;28;20332;-53
2023/09/10 01:50:47;;;;;;;17.57;15.70;;;18.10;99.90;;;;;;4983661;28;20220;-49
2023/09/10 01:53:16;;;;;;;16.90;15.40;;;18.00;99.90;;;;;;4981613;28;20216;-51
2023/09/10 01:55:44;;;;;;;17.47;14.93;;;18.00;99.90;;;;;;4976001;28;20197;-49
2023/09/10 01:58:13;;;;;;;17.43;15.70;;;18.00;99.90;;;;;;4985784;28;20243;-50
2023/09/10 02:00:39;;;;;;;17.60;15.73;;;17.90;99.90;;;;;;4983597;28;20188;-49
2023/09/10 02:03:06;;;;;;;18.60;16.70;;;17.90;99.90;;;;;;4987352;28;20283;-51
2023/09/10 02:05:33;;;;;;;16.93;15.33;;;17.90;99.90;;;;;;4986038;28;20268;-50
2023/09/10 02:08:00;;;;;;;17.93;16.13;;;17.90;99.90;;;;;;4988704;28;20283;-50
2023/09/10 02:10:28;;;;;;;18.40;16.23;;;18.00;99.90;;;;;;4975109;28;20208;-48
2023/09/10 02:12:55;;;;;;;20.13;18.07;;;17.70;99.90;;;;;;4989388;28;20193;-49
2023/09/10 02:15:24;;;;;;;19.97;18.00;;;;;;;;;;4984717;28;20263;-51
2023/09/10 02:17:52;;;;;;;19.37;17.33;;;;;;;;;;4985654;28;20186;-52
2023/09/10 02:20:21;;;;;;;17.90;16.10;;;;;;;;;;4982172;28;20272;-52
2023/09/10 02:22:51;;;;;;;17.37;15.67;;;;;;;;;;4989997;28;20232;-52
2023/09/10 02:25:22;;;;;;;16.83;15.13;;;;;;;;;;4978826;28;20201;-50
2023/09/10 02:27:50;;;;;;;18.07;16.17;;;;;;;;;;4992185;28;20216;-49
2023/09/10 02:30:19;;;;;;;17.67;15.87;;;;;;;;;;4993692;28;20200;-49
2023/09/10 02:32:47;;;;;;;16.43;14.67;;;17.50;99.90;;;;;;4993099;28;20742;-49
2023/09/10 02:35:14;;;;;;;16.17;14.57;;;18.00;99.90;;;;;;4993820;28;20271;-48
2023/09/10 02:37:40;;;;;;;17.60;15.90;;;17.70;99.90;;;;;;4990856;28;20563;-50
2023/09/10 02:40:09;;;;;;;16.33;14.73;;;17.50;99.90;;;;;;4989170;28;20232;-52
2023/09/10 02:42:36;;;;;;;17.77;16.07;;;17.70;99.90;;;;;;4977661;28;20208;-50
2023/09/10 02:45:03;;;;;;;18.60;16.80;;;17.50;99.90;;;;;;4990872;28;20196;-54
2023/09/10 02:47:30;;;;;;;23.87;18.57;;;17.70;99.90;;;;;;4988286;28;20221;-51
2023/09/10 02:49:58;;;;;;;19.17;17.00;;;17.40;99.90;;;;;;4992324;28;20240;-49
2023/09/10 02:52:26;;;;;;;18.77;16.97;;;17.50;99.90;;;;;;4978218;28;20209;-51
2023/09/10 02:54:53;;;;;;;19.03;17.13;;;17.40;99.90;;;;;;4988568;28;20225;-49
2023/09/10 02:57:20;;;;;;;18.77;16.90;;;;;;;;;;4972216;28;20201;-52
2023/09/10 02:59:47;;;;;;;18.67;16.77;;;17.30;99.90;;;;;;4989848;28;20197;-53
2023/09/10 03:02:14;;;;;;;19.80;17.37;;;17.40;99.90;;;;;;4989766;28;20279;-50
2023/09/10 03:04:41;;;;;;;20.20;17.20;;;17.50;99.90;;;;;;4990889;28;20204;-52
2023/09/10 03:07:09;;;;;;;19.27;17.27;;;17.30;99.90;;;;;;4989381;28;20203;-48
2023/09/10 03:09:37;;;;;;;17.53;15.83;;;17.20;99.90;;;;;;4987879;28;20212;-55
2023/09/10 03:12:21;;;;;;;18.47;16.60;;;17.60;99.90;;;;;;4973598;28;20910;-49
2023/09/10 03:14:48;;;;;;;17.47;15.77;;;17.30;99.90;;;;;;4986845;28;20753;-53
2023/09/10 03:17:15;;;;;;;18.20;16.30;;;17.20;99.90;;;;;;4986710;28;20587;-50
2023/09/10 03:19:43;;;;;;;18.63;16.57;;;17.20;99.90;;;;;;4984889;28;20193;-49
2023/09/10 03:22:11;;;;;;;22.93;20.10;;;17.20;99.90;;;;;;4986348;28;20264;-52
2023/09/10 03:24:38;;;;;;;19.13;17.13;;;17.20;99.90;;;;;;4984734;28;20277;-53
2023/09/10 03:27:06;;;;;;;20.03;17.80;;;17.10;99.90;;;;;;4983854;28;20256;-53
2023/09/10 03:29:34;;;;;;;19.30;16.87;;;17.20;99.90;;;;;;4968792;28;20903;-52
2023/09/10 03:32:03;;;;;;;20.73;18.53;;;17.30;99.90;;;;;;4988216;28;20543;-49
2023/09/10 03:34:30;;;;;;;20.37;18.40;;;17.30;99.90;;;;;;4977865;28;20312;-48
2023/09/10 03:36:57;;;;;;;36.17;31.60;;;17.30;99.90;;;;;;4985124;28;20536;-51
2023/09/10 03:39:26;;;;;;;39.80;34.43;;;17.40;99.90;;;;;;4985373;28;20281;-54
2023/09/10 03:41:52;;;;;;;55.43;42.77;;;17.40;99.90;;;;;;4982685;28;20201;-51
2023/09/10 03:44:19;;;;;;;58.60;45.77;;;17.50;99.90;;;;;;4969009;28;20223;-54
2023/09/10 03:46:47;;;;;;;51.97;42.40;;;17.50;99.90;;;;;;4986647;28;20201;-53
2023/09/10 03:49:14;;;;;;;59.63;46.77;;;17.50;99.90;;;;;;4993193;28;20788;-51
2023/09/10 03:51:41;;;;;;;66.47;49.70;;;17.50;99.90;;;;;;4996325;28;20193;-53
2023/09/10 03:54:11;;;;;;;63.17;49.37;;;17.60;99.90;;;;;;4986673;28;20221;-52
2023/09/10 03:56:40;;;;;;;80.00;52.47;;;17.50;99.90;;;;;;4988572;28;20968;-54
2023/09/10 03:59:08;;;;;;;109.57;56.17;;;17.60;99.90;;;;;;4975863;28;20197;-51
2023/09/10 04:01:35;;;;;;;80.30;53.67;;;17.60;99.90;;;;;;4974229;28;20332;-53
2023/09/10 04:04:02;;;;;;;99.37;53.83;;;17.50;99.90;;;;;;4994713;28;20282;-52
2023/09/10 04:06:29;;;;;;;84.60;51.20;;;17.50;99.90;;;;;;4979257;28;20893;-53
2023/09/10 04:08:56;;;;;;;80.37;52.70;;;17.50;99.90;;;;;;4991233;28;20278;-53
2023/09/10 04:11:23;;;;;;;77.20;50.80;;;17.30;99.90;;;;;;4985661;28;20198;-52
2023/09/10 04:13:51;;;;;;;79.40;50.87;;;17.30;99.90;;;;;;4992950;28;20264;-52
2023/09/10 04:16:18;;;;;;;101.30;51.60;;;17.30;99.90;;;;;;4964166;28;20628;-49
2023/09/10 04:18:45;;;;;;;80.17;49.73;;;17.20;99.90;;;;;;4986996;28;20197;-52
2023/09/10 04:21:11;;;;;;;75.90;49.43;;;17.20;99.90;;;;;;4985707;28;20283;-52
2023/09/10 04:23:38;;;;;;;74.97;49.23;;;17.10;99.90;;;;;;4984778;28;20304;-50
2023/09/10 04:26:05;;;;;;;67.53;50.07;;;17.10;99.90;;;;;;4983789;28;20197;-50
2023/09/10 04:28:32;;;;;;;133.70;50.97;;;17.10;99.90;;;;;;4995287;28;20208;-50
2023/09/10 04:31:00;;;;;;;69.67;51.07;;;17.10;99.90;;;;;;4962863;28;20201;-50
2023/09/10 04:33:27;;;;;;;61.53;49.93;;;17.10;99.90;;;;;;4993757;28;20789;-55
2023/09/10 04:35:57;;;;;;;73.23;46.50;;;17.10;99.90;;;;;;4998002;28;20212;-51
2023/09/10 04:38:24;;;;;;;85.77;50.60;;;17.10;99.90;;;;;;4974728;28;20204;-53
2023/09/10 04:40:51;;;;;;;63.03;49.17;;;17.10;99.90;;;;;;4990656;28;20202;-54
2023/09/10 04:43:18;;;;;;;69.43;48.67;;;17.00;99.90;;;;;;4985942;28;20722;-50
2023/09/10 04:45:46;;;;;;;75.30;48.03;;;17.00;99.90;;;;;;4964317;28;20570;-49
2023/09/10 04:48:15;;;;;;;104.40;50.67;;;17.00;99.90;;;;;;4995438;28;20210;-49
2023/09/10 04:50:42;;;;;;;62.23;49.60;;;17.00;99.90;;;;;;4989395;28;20199;-53
2023/09/10 04:53:09;;;;;;;62.13;48.83;;;17.00;99.90;;;;;;4961704;28;20534;-51
2023/09/10 04:55:36;;;;;;;62.13;46.90;;;17.00;99.90;;;;;;4996164;28;20901;-54
2023/09/10 04:58:04;;;;;;;73.80;48.50;;;17.10;99.90;;;;;;4983721;28;20559;-49
2023/09/10 05:00:31;;;;;;;60.33;46.40;;;17.10;99.90;;;;;;4970091;28;20213;-49
2023/09/10 05:02:58;;;;;;;54.63;45.33;;;17.10;99.90;;;;;;4976713;28;20327;-50
2023/09/10 05:05:26;;;;;;;79.30;47.33;;;17.20;99.90;;;;;;4984975;28;20193;-54
2023/09/10 05:07:53;;;;;;;55.97;45.93;;;17.20;99.90;;;;;;4989197;28;20205;-51
2023/09/10 05:10:21;;;;;;;64.73;45.20;;;17.20;99.90;;;;;;4983078;28;20224;-48
2023/09/10 05:12:51;;;;;;;56.57;44.73;;;17.20;99.90;;;;;;4990582;28;20196;-54
2023/09/10 05:15:18;;;;;;;71.40;45.77;;;17.20;99.90;;;;;;4986748;28;20203;-51
2023/09/10 05:17:45;;;;;;;67.47;45.53;;;17.20;99.90;;;;;;4963770;28;20205;-55
2023/09/10 05:20:13;;;;;;;65.60;45.93;;;17.20;99.90;;;;;;4980333;28;20197;-51
2023/09/10 05:22:42;;;;;;;60.27;44.37;;;17.20;99.90;;;;;;4963764;28;20201;-51
2023/09/10 05:25:09;;;;;;;57.57;43.53;;;17.20;99.90;;;;;;4981709;28;20200;-52
2023/09/10 05:27:37;;;;;;;58.60;44.83;;;17.20;99.90;;;;;;4976717;28;20325;-51
2023/09/10 05:30:05;;;;;;;67.13;44.03;;;17.20;99.90;;;;;;4993615;28;20196;-55
2023/09/10 05:32:32;;;;;;;70.93;45.60;;;17.20;99.90;;;;;;4957786;28;20209;-52
2023/09/10 05:34:59;;;;;;;72.13;44.67;;;17.20;99.90;;;;;;4985927;28;20235;-52
2023/09/10 05:37:26;;;;;;;66.97;43.83;;;17.20;99.90;;;;;;4966161;28;20209;-47
2023/09/10 05:39:54;;;;;;;63.40;44.50;;;17.30;99.90;;;;;;4972497;28;20586;-53
2023/09/10 05:42:21;;;;;;;68.07;44.47;;;17.30;99.90;;;;;;4981119;28;20209;-50
2023/09/10 05:44:52;;;;;;;69.40;44.77;;;17.20;99.90;;;;;;4987127;28;20937;-53
2023/09/10 05:47:20;;;;;;;90.10;46.27;;;17.30;99.90;;;;;;4967928;28;20667;-50
2023/09/10 05:49:47;;;;;;;74.40;45.97;;;17.20;99.90;;;;;;4980154;28;20467;-53
2023/09/10 05:52:14;;;;;;;86.57;45.73;;;17.20;99.90;;;;;;4964892;28;20347;-54
2023/09/10 05:54:41;;;;;;;85.83;46.27;;;17.30;99.90;;;;;;4975390;28;20569;-54
2023/09/10 05:57:09;;;;;;;79.83;45.90;;;17.30;99.90;;;;;;4961159;28;20201;-52
2023/09/10 05:59:36;;;;;;;90.03;46.40;;;17.30;99.90;;;;;;4973367;28;20308;-52
2023/09/10 06:02:04;;;;;;;79.73;45.73;;;17.30;99.90;;;;;;4976283;28;20197;-51
2023/09/10 06:04:32;;;;;;;84.40;46.30;;;17.30;99.90;;;;;;4961900;28;20228;-52
2023/09/10 06:07:03;;;;;;;84.50;45.93;;;17.30;99.90;;;;;;4985482;28;20272;-50
2023/09/10 06:09:31;;;;;;;82.77;45.53;;;17.30;99.90;;;;;;4968065;28;20228;-54
2023/09/10 06:11:58;;;;;;;82.50;45.53;;;17.30;99.90;;;;;;4960995;28;20217;-52
2023/09/10 06:14:27;;;;;;;84.80;44.30;;;17.20;99.90;;;;;;4978532;28;20231;-50
2023/09/10 06:16:54;;;;;;;82.40;43.67;;;17.30;99.90;;;;;;4985146;28;20194;-47
2023/09/10 06:19:21;;;;;;;80.50;44.67;;;17.30;99.90;;;;;;4958570;28;20209;-50
2023/09/10 06:21:48;;;;;;;88.43;45.60;;;17.30;99.90;;;;;;4990260;28;20203;-50
2023/09/10 06:24:16;;;;;;;81.97;42.37;;;17.30;99.90;;;;;;4972167;28;20225;-52
2023/09/10 06:26:43;;;;;;;88.23;46.30;;;17.30;99.90;;;;;;4977464;28;20240;-50
2023/09/10 06:29:11;;;;;;;85.37;43.73;;;17.30;99.90;;;;;;4983745;28;20228;-51
2023/09/10 06:31:40;;;;;;;98.73;46.27;;;17.30;99.90;;;;;;4975406;28;20221;-53
2023/09/10 06:34:06;;;;;;;93.80;46.40;;;17.30;99.90;;;;;;4965837;28;20229;-53
2023/09/10 06:36:34;;;;;;;92.77;45.20;;;17.20;99.90;;;;;;4986426;28;20196;-47
2023/09/10 06:39:01;;;;;;;95.47;46.70;;;17.30;99.90;;;;;;4987451;28;20679;-49
2023/09/10 06:41:28;;;;;;;85.73;45.37;;;17.30;99.90;;;;;;4966834;28;20202;-49
2023/09/10 06:43:55;;;;;;;91.53;45.77;;;17.40;99.90;;;;;;4977411;28;20856;-51
2023/09/10 06:46:23;;;;;;;82.93;43.93;;;17.40;99.90;;;;;;4974260;28;20307;-53
2023/09/10 06:48:51;;;;;;;87.57;44.97;;;17.40;99.90;;;;;;4983812;28;20623;-52
2023/09/10 06:51:18;;;;;;;79.47;42.20;;;17.50;99.90;;;;;;4960012;28;20299;-51
2023/09/10 06:53:45;;;;;;;78.93;42.67;;;17.50;99.90;;;;;;4986346;28;20235;-54
2023/09/10 06:56:12;;;;;;;88.27;43.30;;;17.50;99.90;;;;;;4978491;28;20228;-57
2023/09/10 06:58:39;;;;;;;84.33;43.50;;;17.50;99.90;;;;;;4973667;28;20255;-52
2023/09/10 07:01:06;;;;;;;80.27;44.60;;;17.50;99.90;;;;;;4984337;28;20275;-54
2023/09/10 07:03:33;;;;;;;88.27;43.87;;;17.50;99.90;;;;;;4984924;28;20213;-53
2023/09/10 07:06:03;;;;;;;87.47;44.67;;;17.50;99.90;;;;;;4961221;28;20205;-56
2023/09/10 07:08:30;;;;;;;84.77;43.57;;;17.60;99.90;;;;;;4984964;28;20315;-52
2023/09/10 07:10:57;;;;;;;82.17;42.10;;;17.60;99.90;;;;;;4977846;28;20280;-54
2023/09/10 07:13:24;;;;;;;70.77;40.10;;;17.60;99.90;;;;;;4972332;28;20739;-55
2023/09/10 07:15:51;;;;;;;73.40;40.17;;;17.70;99.90;;;;;;4985285;28;20213;-52
2023/09/10 07:18:18;;;;;;;67.10;37.63;;;17.60;99.90;;;;;;4983838;28;20683;-57
2023/09/10 07:20:45;;;;;;;69.93;38.20;;;17.60;99.90;;;;;;4964338;28;20831;-53
2023/09/10 07:23:13;;;;;;;66.80;37.93;;;17.60;99.90;;;;;;4985655;28;20595;-55
2023/09/10 07:25:40;;;;;;;61.13;35.60;;;17.60;99.90;;;;;;4977860;28;20193;-48
2023/09/10 07:28:07;;;;;;;60.10;36.67;;;17.50;99.90;;;;;;4990895;28;20229;-54
2023/09/10 07:30:34;;;;;;;58.47;34.47;;;17.50;99.90;;;;;;4977949;28;20302;-50
2023/09/10 07:33:01;;;;;;;57.07;34.80;;;17.50;99.90;;;;;;4983012;28;20970;-52
2023/09/10 07:35:28;;;;;;;66.23;36.90;;;17.50;99.90;;;;;;4974626;28;20202;-55
2023/09/10 07:37:55;;;;;;;62.70;36.00;;;17.60;99.90;;;;;;4961002;28;21201;-56
2023/09/10 07:40:23;;;;;;;64.37;37.87;;;17.60;99.90;;;;;;4964775;28;20206;-57
2023/09/10 07:42:51;;;;;;;70.17;39.53;;;17.60;99.90;;;;;;4969244;28;20986;-53
2023/09/10 07:45:18;;;;;;;64.97;36.57;;;17.60;99.90;;;;;;4974505;28;20205;-57
2023/09/10 07:47:44;;;;;;;65.67;36.50;;;17.60;99.90;;;;;;4993988;28;20251;-49
2023/09/10 07:50:11;;;;;;;57.43;35.47;;;17.70;99.90;;;;;;4992561;28;20209;-52
2023/09/10 07:52:38;;;;;;;62.77;36.97;;;17.60;99.90;;;;;;4962874;28;20259;-49
2023/09/10 07:55:06;;;;;;;60.60;36.53;;;17.70;99.90;;;;;;4994314;28;20216;-52
2023/09/10 07:57:34;;;;;;;61.37;36.43;;;17.70;99.90;;;;;;4987580;28;20209;-56
2023/09/10 08:00:01;;;;;;;58.83;36.20;;;17.80;99.90;;;;;;4981092;28;20271;-55
2023/09/10 08:02:38;;;;;;;60.50;32.73;;;17.80;99.90;;;;;;4987048;28;20204;-51
2023/09/10 08:05:06;;;;;;;62.97;35.40;;;17.70;99.90;;;;;;4993159;28;20237;-51
2023/09/10 08:07:33;;;;;;;63.43;36.37;;;17.80;99.90;;;;;;4975458;28;20204;-55
2023/09/10 08:09:59;;;;;;;57.13;35.23;;;17.80;99.90;;;;;;4982968;28;20213;-54
2023/09/10 08:12:27;;;;;;;62.33;34.93;;;17.80;99.90;;;;;;4978155;28;20232;-56
2023/09/10 08:14:55;;;;;;;56.80;34.33;;;17.90;99.90;;;;;;4974563;28;20791;-56
2023/09/10 08:17:22;;;;;;;58.43;34.27;;;18.00;99.90;;;;;;4987300;28;20217;-56
2023/09/10 08:19:48;;;;;;;52.33;33.10;;;18.00;99.90;;;;;;4985709;28;20201;-48
2023/09/10 08:22:16;;;;;;;56.43;33.17;;;17.90;99.90;;;;;;4985369;28;20201;-56
2023/09/10 08:24:43;;;;;;;60.70;32.80;;;17.90;99.90;;;;;;4963839;28;20352;-49
2023/09/10 08:27:13;;;;;;;55.27;33.93;;;17.90;99.90;;;;;;4984094;28;20672;-54
2023/09/10 08:29:40;;;;;;;55.93;32.23;;;18.00;99.90;;;;;;4975305;28;20303;-53
2023/09/10 08:32:08;;;;;;;60.13;34.60;;;18.00;99.90;;;;;;4985367;28;20197;-54
2023/09/10 08:34:34;;;;;;;53.60;32.73;;;18.10;99.90;;;;;;4992020;28;20209;-52
2023/09/10 08:37:05;;;;;;;55.20;30.87;;;18.00;99.90;;;;;;4985951;28;20197;-56
2023/09/10 08:39:32;;;;;;;51.20;30.93;;;17.80;99.90;;;;;;4972544;28;25705;-55
2023/09/10 08:42:11;;;;;;;53.77;30.43;;;17.90;99.90;;;;;;4989597;28;20205;-53
2023/09/10 08:44:42;;;;;;;48.97;28.30;;;17.80;99.90;;;;;;4977141;28;20295;-52
2023/09/10 08:47:15;;;;;;;49.73;30.27;;;17.90;99.90;;;;;;4990563;28;20204;-56
2023/09/10 08:49:43;;;;;;;44.70;27.57;;;17.90;99.90;;;;;;4990979;28;20220;-54
2023/09/10 08:52:11;;;;;;;48.87;28.57;;;17.90;99.90;;;;;;4993811;28;20620;-54
2023/09/10 08:54:38;;;;;;;47.70;28.93;;;18.00;99.90;;;;;;4967818;28;20691;-53
2023/09/10 08:57:06;;;;;;;45.43;28.53;;;18.10;99.90;;;;;;4993340;28;20723;-59
2023/09/10 08:59:33;;;;;;;43.90;28.47;;;18.20;99.90;;;;;;4988590;28;20196;-52
2023/09/10 09:02:00;;;;;;;45.10;27.73;;;18.20;99.90;;;;;;4984271;28;20766;-55
2023/09/10 09:04:30;;;;;;;44.43;27.83;;;18.20;99.90;;;;;;4993504;28;20224;-50
2023/09/10 09:06:58;;;;;;;45.47;28.00;;;18.20;99.90;;;;;;4994312;28;20201;-52
2023/09/10 09:09:30;;;;;;;43.53;26.20;;;18.30;99.90;;;;;;4993901;28;20212;-55
2023/09/10 09:11:58;;;;;;;44.13;27.27;;;18.40;99.90;;;;;;4968856;28;20279;-55
2023/09/10 09:14:26;;;;;;;40.30;25.87;;;18.50;99.90;;;;;;4985054;28;20918;-54
2023/09/10 09:16:54;;;;;;;41.43;26.90;;;18.50;99.90;;;;;;4980698;28;20730;-51
2023/09/10 09:19:25;;;;;;;42.63;26.20;;;18.60;99.90;;;;;;4983901;28;20246;-52
2023/09/10 09:21:53;;;;;;;44.00;27.47;;;18.50;99.90;;;;;;4991788;28;20204;-53
2023/09/10 09:24:22;;;;;;;42.10;26.57;;;18.60;99.90;;;;;;4989222;28;20209;-51
2023/09/10 09:26:52;;;;;;;44.87;27.80;;;18.60;99.90;;;;;;4971768;28;20208;-53
2023/09/10 09:29:20;;;;;;;43.20;27.53;;;18.80;99.90;;;;;;4980527;28;20253;-48
2023/09/10 09:31:46;;;;;;;45.60;26.57;;;18.90;99.90;;;;;;4983133;28;20575;-53
2023/09/10 09:34:13;;;;;;;41.60;27.57;;;18.90;99.90;;;;;;4980924;28;20205;-53
2023/09/10 09:36:42;;;;;;;45.87;29.40;;;19.00;99.90;;;;;;4986907;28;20260;-52
2023/09/10 09:39:12;;;;;;;47.10;28.03;;;18.90;99.90;;;;;;4979877;28;20200;-55
2023/09/10 09:41:38;;;;;;;48.50;29.20;;;19.00;99.90;;;;;;4994300;28;20727;-54
2023/09/10 09:44:06;;;;;;;49.10;28.20;;;18.90;99.90;;;;;;4955415;28;20642;-57
2023/09/10 09:46:34;;;;;;;47.60;29.10;;;19.00;99.90;;;;;;4991679;28;20205;-52
2023/09/10 09:49:01;;;;;;;48.47;28.70;;;19.10;99.90;;;;;;4979555;28;20197;-57
2023/09/10 09:51:29;;;;;;;50.13;29.40;;;19.20;99.90;;;;;;4985902;28;20197;-55
2023/09/10 09:53:56;;;;;;;47.97;27.77;;;19.30;99.90;;;;;;4987327;28;20220;-56
2023/09/10 09:56:24;;;;;;;49.73;26.87;;;19.40;99.90;;;;;;4989202;28;20960;-49
2023/09/10 09:58:51;;;;;;;51.17;29.83;;;19.50;99.90;;;;;;4968980;28;20696;-56
2023/09/10 10:01:21;;;;;;;50.50;29.20;;;19.50;99.90;;;;;;4984484;28;20362;-52
2023/09/10 10:03:49;;;;;;;48.73;29.50;;;19.60;99.90;;;;;;4979647;28;20233;-51
2023/09/10 10:06:17;;;;;;;46.30;27.67;;;19.70;99.90;;;;;;4984788;28;20209;-53
2023/09/10 10:08:49;;;;;;;50.73;29.30;;;19.70;99.90;;;;;;4987994;28;20203;-51
2023/09/10 10:11:16;;;;;;;52.77;29.30;;;19.90;99.90;;;;;;4986385;28;20201;-48
2023/09/10 10:13:45;;;;;;;48.90;30.17;;;19.90;99.90;;;;;;4967504;28;20217;-50
2023/09/10 10:16:13;;;;;;;45.77;28.33;;;19.90;99.90;;;;;;4981976;28;20263;-48
2023/09/10 10:18:40;;;;;;;48.50;27.63;;;19.90;99.90;;;;;;4990245;28;20247;-49
2023/09/10 10:21:09;;;;;;;42.57;26.80;;;20.20;99.90;;;;;;4977522;28;20260;-56
2023/09/10 10:23:37;;;;;;;44.87;27.37;;;20.20;99.90;;;;;;4985939;28;20292;-49
2023/09/10 10:26:06;;;;;;;47.23;27.13;;;20.20;99.90;;;;;;4988721;28;20251;-54
2023/09/10 10:28:35;;;;;;;46.87;28.17;;;20.30;99.90;;;;;;4986292;28;20206;-52
2023/09/10 10:31:08;;;;;;;46.70;26.13;;;20.40;99.90;;;;;;4969540;28;20224;-57
2023/09/10 10:33:38;;;;;;;48.20;27.77;;;20.50;99.90;;;;;;4988562;28;20241;-55
2023/09/10 10:36:14;;;;;;;41.57;26.90;;;20.60;99.90;;;;;;4977264;28;20216;-52
2023/09/10 10:38:44;;;;;;;47.10;26.83;;;20.60;99.90;;;;;;4988479;28;20275;-56
2023/09/10 10:41:14;;;;;;;43.43;25.30;;;20.70;99.90;;;;;;4988057;28;20682;-52
2023/09/10 10:43:46;;;;;;;47.43;28.13;;;20.70;99.90;;;;;;4984803;28;20224;-55
2023/09/10 10:46:16;;;;;;;45.67;27.60;;;20.70;99.90;;;;;;4972804;28;20228;-49
2023/09/10 10:48:44;;;;;;;44.07;26.27;;;20.80;99.90;;;;;;4991696;28;20259;-55
2023/09/10 10:51:17;;;;;;;41.97;25.00;;;20.90;99.90;;;;;;4981014;28;20268;-55
2023/09/10 10:53:45;;;;;;;49.63;28.35;;;21.00;99.90;;;;;;4984996;28;20221;-56
2023/09/10 10:56:14;;;;;;;49.67;27.57;;;21.10;99.90;;;;;;4990491;28;20243;-48
2023/09/10 10:58:41;;;;;;;46.93;27.10;;;21.10;99.90;;;;;;4988168;28;20263;-55
2023/09/10 11:01:11;;;;;;;41.65;24.10;;;21.20;99.90;;;;;;4967045;28;20424;-53
2023/09/10 11:03:40;;;;;;;37.17;24.25;;;21.30;99.90;;;;;;4990420;28;20229;-58
2023/09/10 11:06:07;;;;;;;43.53;26.48;;;21.50;99.90;;;;;;4982371;28;21081;-54
2023/09/10 11:08:37;;;;;;;41.27;26.03;;;21.50;99.90;;;;;;4993772;28;20197;-55
2023/09/10 11:11:05;;;;;;;40.65;25.90;;;21.60;99.90;;;;;;4991847;28;20216;-54
2023/09/10 11:13:32;;;;;;;41.17;24.48;;;21.60;99.90;;;;;;4986282;28;20933;-56
2023/09/10 11:16:23;;;;;;;44.78;26.52;;;21.70;99.90;;;;;;4969664;28;20215;-48
2023/09/10 11:18:51;;;;;;;43.38;25.15;;;21.80;99.90;;;;;;4979005;28;20726;-50
2023/09/10 11:21:18;;;;;;;43.05;25.05;;;21.80;99.90;;;;;;4993768;28;20185;-52
2023/09/10 11:24:21;;;;;;;44.13;27.00;;;21.90;99.90;;;;;;4984202;28;20676;-57
2023/09/10 11:26:48;;;;;;;42.60;25.27;;;21.90;99.90;;;;;;4983417;28;20732;-55
2023/09/10 11:29:17;;;;;;;37.40;23.20;;;21.90;99.90;;;;;;4992958;28;20210;-49
2023/09/10 11:31:47;;;;;;;36.60;24.55;;;;;;;;;;4967755;28;20566;-51
2023/09/10 11:34:34;;;;;;;43.25;27.00;;;;;;;;;;4989965;28;20297;-50
2023/09/10 11:37:04;;;;;;;44.50;24.58;;;22.40;99.90;;;;;;4979015;28;20308;-54
2023/09/10 11:39:32;;;;;;;38.05;24.90;;;22.40;99.90;;;;;;4995779;28;20212;-55
2023/09/10 11:42:02;;;;;;;36.10;22.92;;;22.50;99.90;;;;;;4996579;28;20194;-50
2023/09/10 11:44:29;;;;;;;32.92;22.27;;;22.50;99.90;;;;;;4987198;28;20287;-49
2023/09/10 11:46:57;;;;;;;38.53;23.33;;;22.60;99.90;;;;;;4964599;28;20287;-53
2023/09/10 11:49:25;;;;;;;36.17;24.33;;;22.80;99.90;;;;;;4996556;28;20203;-56
2023/09/10 11:51:53;;;;;;;39.22;24.30;;;22.90;99.90;;;;;;4999240;28;20308;-53
2023/09/10 11:54:22;;;;;;;39.97;25.17;;;22.90;99.90;;;;;;4986317;28;20699;-49
2023/09/10 11:56:51;;;;;;;40.15;24.83;;;22.90;99.90;;;;;;4981180;28;20209;-51
2023/09/10 11:59:23;;;;;;;35.90;23.60;;;23.00;99.90;;;;;;4995745;28;20255;-54
2023/09/10 12:01:50;;;;;;;36.03;23.65;;;23.00;99.90;;;;;;4973688;28;20201;-51
2023/09/10 12:04:19;;;;;;;45.28;27.17;;;23.20;99.90;;;;;;4998453;28;20221;-56
2023/09/10 12:06:46;;;;;;;40.15;26.08;;;23.20;99.90;;;;;;4983922;28;20683;-51
2023/09/10 12:09:16;;;;;;;37.22;24.63;;;23.40;99.90;;;;;;4986945;28;20260;-50
2023/09/10 12:11:44;;;;;;;36.38;24.48;;;23.30;99.90;;;;;;4988888;28;20212;-54
2023/09/10 12:14:13;;;;;;;38.38;25.45;;;23.30;99.90;;;;;;4992303;28;20228;-51
2023/09/10 12:16:40;;;;;;;32.80;22.17;;;23.30;99.90;;;;;;4994139;28;20228;-52
2023/09/10 12:19:08;;;;;;;38.17;24.83;;;23.40;99.90;;;;;;4974681;28;20327;-54
2023/09/10 12:21:35;;;;;;;35.13;23.05;;;23.50;99.90;;;;;;4988937;28;20859;-53
2023/09/10 12:24:02;;;;;;;37.17;25.08;;;23.50;99.90;;;;;;4980404;28;20349;-53
2023/09/10 12:26:29;;;;;;;34.20;24.15;;;23.50;99.90;;;;;;4987624;28;20209;-49
2023/09/10 12:28:57;;;;;;;34.97;24.05;;;23.60;99.90;;;;;;4992471;28;20185;-51
2023/09/10 12:31:24;;;;;;;38.05;26.83;;;23.60;99.90;;;;;;4993099;28;20276;-54
2023/09/10 12:33:52;;;;;;;35.20;23.63;;;23.60;99.90;;;;;;4976220;28;20369;-49
2023/09/10 12:36:20;;;;;;;37.15;24.10;;;;;;;;;;4991505;28;20201;-50